sensor_id;sensor_type;location;lat;lon;timestamp;temperature;humidity
37794;DHT22;23632;48.826;15.176;2022-11-09T00:01:03;20.10;62.00
37794;DHT22;23632;48.826;15.176;2022-11-09T00:03:31;20.10;61.90
37794;DHT22;23632;48.826;15.176;2022-11-09T00:05:59;20.10;62.00
37794;DHT22;23632;48.826;15.176;2022-11-09T00:08:27;20.10;62.10
37794;DHT22;23632;48.826;15.176;2022-11-09T00:10:54;20.10;62.10
37794;DHT22;23632;48.826;15.176;2022-11-09T00:13:27;20.10;62.10
37794;DHT22;23632;48.826;15.176;2022-11-09T00:15:58;20.10;62.10
37794;DHT22;23632;48.826;15.176;2022-11-09T00:18:25;20.10;62.10
37794;DHT22;23632;48.826;15.176;2022-11-09T00:20:53;20.10;62.00
37794;DHT22;23632;48.826;15.176;2022-11-09T00:23:21;20.10;62.10
37794;DHT22;23632;48.826;15.176;2022-11-09T00:25:48;20.00;61.90
37794;DHT22;23632;48.826;15.176;2022-11-09T00:28:15;20.10;62.00
37794;DHT22;23632;48.826;15.176;2022-11-09T00:30:43;20.00;61.90
37794;DHT22;23632;48.826;15.176;2022-11-09T00:33:10;20.10;62.00
37794;DHT22;23632;48.826;15.176;2022-11-09T00:35:41;20.10;62.00
37794;DHT22;23632;48.826;15.176;2022-11-09T00:38:08;20.10;62.00
37794;DHT22;23632;48.826;15.176;2022-11-09T00:40:37;20.10;62.00
37794;DHT22;23632;48.826;15.176;2022-11-09T00:43:04;20.00;61.90
37794;DHT22;23632;48.826;15.176;2022-11-09T00:45:31;20.00;61.90
37794;DHT22;23632;48.826;15.176;2022-11-09T00:47:58;20.10;62.00
37794;DHT22;23632;48.826;15.176;2022-11-09T00:50:25;20.00;61.90
37794;DHT22;23632;48.826;15.176;2022-11-09T00:52:52;20.10;61.90
37794;DHT22;23632;48.826;15.176;2022-11-09T00:55:20;20.00;61.90
37794;DHT22;23632;48.826;15.176;2022-11-09T00:57:50;20.10;61.90
37794;DHT22;23632;48.826;15.176;2022-11-09T01:00:21;20.00;61.90
37794;DHT22;23632;48.826;15.176;2022-11-09T01:02:49;20.10;61.90
37794;DHT22;23632;48.826;15.176;2022-11-09T01:05:17;20.00;61.90
37794;DHT22;23632;48.826;15.176;2022-11-09T01:07:47;20.00;61.80
37794;DHT22;23632;48.826;15.176;2022-11-09T01:10:14;20.00;61.80
37794;DHT22;23632;48.826;15.176;2022-11-09T01:12:41;20.00;61.90
37794;DHT22;23632;48.826;15.176;2022-11-09T01:15:08;20.00;61.90
37794;DHT22;23632;48.826;15.176;2022-11-09T01:17:36;20.00;61.90
37794;DHT22;23632;48.826;15.176;2022-11-09T01:20:03;20.00;61.90
37794;DHT22;23632;48.826;15.176;2022-11-09T01:22:31;20.00;61.80
37794;DHT22;23632;48.826;15.176;2022-11-09T01:24:58;20.00;61.90
37794;DHT22;23632;48.826;15.176;2022-11-09T01:27:25;20.00;62.80
37794;DHT22;23632;48.826;15.176;2022-11-09T01:29:52;20.00;61.90
37794;DHT22;23632;48.826;15.176;2022-11-09T01:32:19;20.00;61.90
37794;DHT22;23632;48.826;15.176;2022-11-09T01:34:46;20.00;61.90
37794;DHT22;23632;48.826;15.176;2022-11-09T01:37:14;20.00;62.80
37794;DHT22;23632;48.826;15.176;2022-11-09T01:39:41;20.00;61.90
37794;DHT22;23632;48.826;15.176;2022-11-09T01:42:08;20.00;61.90
37794;DHT22;23632;48.826;15.176;2022-11-09T01:44:37;20.00;61.90
37794;DHT22;23632;48.826;15.176;2022-11-09T01:47:13;20.00;61.90
37794;DHT22;23632;48.826;15.176;2022-11-09T01:49:53;20.00;61.90
37794;DHT22;23632;48.826;15.176;2022-11-09T01:52:28;20.00;61.90
37794;DHT22;23632;48.826;15.176;2022-11-09T01:55:02;20.00;61.90
37794;DHT22;23632;48.826;15.176;2022-11-09T01:57:37;20.00;61.90
37794;DHT22;23632;48.826;15.176;2022-11-09T02:00:17;20.00;61.90
37794;DHT22;23632;48.826;15.176;2022-11-09T02:03:21;20.00;61.90
37794;DHT22;23632;48.826;15.176;2022-11-09T02:05:51;20.00;61.90
37794;DHT22;23632;48.826;15.176;2022-11-09T02:08:20;20.00;61.80
37794;DHT22;23632;48.826;15.176;2022-11-09T02:11:11;20.00;61.80
37794;DHT22;23632;48.826;15.176;2022-11-09T02:13:52;19.90;61.80
37794;DHT22;23632;48.826;15.176;2022-11-09T02:16:22;20.00;61.90
37794;DHT22;23632;48.826;15.176;2022-11-09T02:18:54;19.90;61.80
37794;DHT22;23632;48.826;15.176;2022-11-09T02:21:26;19.90;61.80
37794;DHT22;23632;48.826;15.176;2022-11-09T02:23:56;19.90;61.80
37794;DHT22;23632;48.826;15.176;2022-11-09T02:29:13;19.90;61.90
37794;DHT22;23632;48.826;15.176;2022-11-09T02:32:00;19.90;61.80
37794;DHT22;23632;48.826;15.176;2022-11-09T02:34:30;19.90;61.80
37794;DHT22;23632;48.826;15.176;2022-11-09T02:36:57;19.90;61.90
37794;DHT22;23632;48.826;15.176;2022-11-09T02:39:25;19.90;61.80
37794;DHT22;23632;48.826;15.176;2022-11-09T02:42:00;19.90;61.80
37794;DHT22;23632;48.826;15.176;2022-11-09T02:44:39;19.90;61.80
37794;DHT22;23632;48.826;15.176;2022-11-09T02:47:09;19.90;61.90
37794;DHT22;23632;48.826;15.176;2022-11-09T02:49:36;19.90;61.80
37794;DHT22;23632;48.826;15.176;2022-11-09T02:52:04;19.90;61.80
37794;DHT22;23632;48.826;15.176;2022-11-09T02:54:31;19.90;61.80
37794;DHT22;23632;48.826;15.176;2022-11-09T02:56:58;19.90;61.90
37794;DHT22;23632;48.826;15.176;2022-11-09T02:59:26;19.90;61.90
37794;DHT22;23632;48.826;15.176;2022-11-09T03:01:54;19.90;61.90
37794;DHT22;23632;48.826;15.176;2022-11-09T03:04:21;19.90;61.90
37794;DHT22;23632;48.826;15.176;2022-11-09T03:06:48;19.90;61.80
37794;DHT22;23632;48.826;15.176;2022-11-09T03:09:17;19.90;61.90
37794;DHT22;23632;48.826;15.176;2022-11-09T03:11:45;19.90;61.90
37794;DHT22;23632;48.826;15.176;2022-11-09T03:14:14;19.90;61.80
37794;DHT22;23632;48.826;15.176;2022-11-09T03:16:49;19.90;61.90
37794;DHT22;23632;48.826;15.176;2022-11-09T03:19:17;19.90;61.90
37794;DHT22;23632;48.826;15.176;2022-11-09T03:21:48;19.90;61.90
37794;DHT22;23632;48.826;15.176;2022-11-09T03:24:20;19.90;61.80
37794;DHT22;23632;48.826;15.176;2022-11-09T03:26:50;19.90;61.80
37794;DHT22;23632;48.826;15.176;2022-11-09T03:29:17;19.90;61.80
37794;DHT22;23632;48.826;15.176;2022-11-09T03:31:44;19.90;61.80
37794;DHT22;23632;48.826;15.176;2022-11-09T03:34:11;19.90;61.90
37794;DHT22;23632;48.826;15.176;2022-11-09T03:36:39;19.90;61.80
37794;DHT22;23632;48.826;15.176;2022-11-09T03:39:06;19.90;61.80
37794;DHT22;23632;48.826;15.176;2022-11-09T03:41:34;19.90;61.90
37794;DHT22;23632;48.826;15.176;2022-11-09T03:44:01;19.90;62.80
37794;DHT22;23632;48.826;15.176;2022-11-09T03:46:29;19.90;61.90
37794;DHT22;23632;48.826;15.176;2022-11-09T03:48:56;19.90;61.90
37794;DHT22;23632;48.826;15.176;2022-11-09T03:51:24;19.90;61.90
37794;DHT22;23632;48.826;15.176;2022-11-09T03:53:52;19.90;61.80
37794;DHT22;23632;48.826;15.176;2022-11-09T03:56:19;19.90;61.80
37794;DHT22;23632;48.826;15.176;2022-11-09T03:58:46;19.90;61.90
37794;DHT22;23632;48.826;15.176;2022-11-09T04:01:14;19.90;61.80
37794;DHT22;23632;48.826;15.176;2022-11-09T04:03:41;19.90;61.80
37794;DHT22;23632;48.826;15.176;2022-11-09T04:06:08;19.90;61.90
37794;DHT22;23632;48.826;15.176;2022-11-09T04:08:35;19.90;61.90
37794;DHT22;23632;48.826;15.176;2022-11-09T04:11:02;19.90;61.90
37794;DHT22;23632;48.826;15.176;2022-11-09T04:13:30;19.80;61.70
37794;DHT22;23632;48.826;15.176;2022-11-09T04:15:57;19.90;61.80
37794;DHT22;23632;48.826;15.176;2022-11-09T04:18:24;19.90;61.80
37794;DHT22;23632;48.826;15.176;2022-11-09T04:20:52;19.90;61.90
37794;DHT22;23632;48.826;15.176;2022-11-09T04:23:19;19.80;61.70
37794;DHT22;23632;48.826;15.176;2022-11-09T04:25:47;19.90;61.90
37794;DHT22;23632;48.826;15.176;2022-11-09T04:28:17;19.90;61.90
37794;DHT22;23632;48.826;15.176;2022-11-09T04:30:45;19.80;61.80
37794;DHT22;23632;48.826;15.176;2022-11-09T04:33:12;19.80;61.70
37794;DHT22;23632;48.826;15.176;2022-11-09T04:35:39;19.80;61.70
37794;DHT22;23632;48.826;15.176;2022-11-09T04:38:11;19.80;61.80
37794;DHT22;23632;48.826;15.176;2022-11-09T04:40:39;19.80;61.70
37794;DHT22;23632;48.826;15.176;2022-11-09T04:43:09;19.80;61.70
37794;DHT22;23632;48.826;15.176;2022-11-09T04:45:38;19.80;61.80
37794;DHT22;23632;48.826;15.176;2022-11-09T04:48:05;19.80;61.80
37794;DHT22;23632;48.826;15.176;2022-11-09T04:50:33;19.80;61.80
37794;DHT22;23632;48.826;15.176;2022-11-09T04:53:09;19.80;62.20
37794;DHT22;23632;48.826;15.176;2022-11-09T04:55:38;19.80;61.80
37794;DHT22;23632;48.826;15.176;2022-11-09T04:58:06;19.80;61.70
37794;DHT22;23632;48.826;15.176;2022-11-09T05:00:34;19.80;61.70
37794;DHT22;23632;48.826;15.176;2022-11-09T05:03:03;19.80;61.80
37794;DHT22;23632;48.826;15.176;2022-11-09T05:05:32;19.80;61.70
37794;DHT22;23632;48.826;15.176;2022-11-09T05:08:01;19.80;61.80
37794;DHT22;23632;48.826;15.176;2022-11-09T05:10:29;19.80;61.70
37794;DHT22;23632;48.826;15.176;2022-11-09T05:13:01;19.80;61.80
37794;DHT22;23632;48.826;15.176;2022-11-09T05:15:33;19.80;61.70
37794;DHT22;23632;48.826;15.176;2022-11-09T05:18:01;19.80;61.70
37794;DHT22;23632;48.826;15.176;2022-11-09T05:20:29;19.80;61.80
37794;DHT22;23632;48.826;15.176;2022-11-09T05:22:58;19.80;61.80
37794;DHT22;23632;48.826;15.176;2022-11-09T05:25:45;19.80;61.80
37794;DHT22;23632;48.826;15.176;2022-11-09T05:28:13;19.80;61.80
37794;DHT22;23632;48.826;15.176;2022-11-09T05:30:40;19.70;61.70
37794;DHT22;23632;48.826;15.176;2022-11-09T05:33:07;19.80;61.80
37794;DHT22;23632;48.826;15.176;2022-11-09T05:35:35;19.80;61.80
37794;DHT22;23632;48.826;15.176;2022-11-09T05:38:02;19.80;61.80
37794;DHT22;23632;48.826;15.176;2022-11-09T05:40:30;19.80;61.80
37794;DHT22;23632;48.826;15.176;2022-11-09T05:42:57;19.80;61.80
37794;DHT22;23632;48.826;15.176;2022-11-09T05:45:25;19.80;61.80
37794;DHT22;23632;48.826;15.176;2022-11-09T05:48:11;19.80;61.80
37794;DHT22;23632;48.826;15.176;2022-11-09T05:50:40;19.80;61.70
37794;DHT22;23632;48.826;15.176;2022-11-09T05:53:13;19.80;62.60
37794;DHT22;23632;48.826;15.176;2022-11-09T05:55:40;19.80;61.70
37794;DHT22;23632;48.826;15.176;2022-11-09T05:58:08;19.80;61.80
37794;DHT22;23632;48.826;15.176;2022-11-09T06:00:35;19.70;61.70
37794;DHT22;23632;48.826;15.176;2022-11-09T06:03:08;19.80;61.80
37794;DHT22;23632;48.826;15.176;2022-11-09T06:05:37;19.80;61.80
37794;DHT22;23632;48.826;15.176;2022-11-09T06:08:11;19.80;61.80
37794;DHT22;23632;48.826;15.176;2022-11-09T06:10:40;19.70;61.70
37794;DHT22;23632;48.826;15.176;2022-11-09T06:13:08;19.80;61.80
37794;DHT22;23632;48.826;15.176;2022-11-09T06:15:36;19.70;61.70
37794;DHT22;23632;48.826;15.176;2022-11-09T06:18:03;19.70;61.70
37794;DHT22;23632;48.826;15.176;2022-11-09T06:20:30;19.70;61.70
37794;DHT22;23632;48.826;15.176;2022-11-09T06:23:00;19.80;61.80
37794;DHT22;23632;48.826;15.176;2022-11-09T06:25:31;19.70;61.80
37794;DHT22;23632;48.826;15.176;2022-11-09T06:27:59;19.70;61.80
37794;DHT22;23632;48.826;15.176;2022-11-09T06:30:27;19.70;61.80
37794;DHT22;23632;48.826;15.176;2022-11-09T06:32:59;19.70;61.80
37794;DHT22;23632;48.826;15.176;2022-11-09T06:35:27;19.70;61.80
37794;DHT22;23632;48.826;15.176;2022-11-09T06:37:56;19.70;61.70
37794;DHT22;23632;48.826;15.176;2022-11-09T06:40:24;19.70;61.80
37794;DHT22;23632;48.826;15.176;2022-11-09T06:42:54;19.70;61.70
37794;DHT22;23632;48.826;15.176;2022-11-09T06:45:22;19.70;61.80
37794;DHT22;23632;48.826;15.176;2022-11-09T06:47:49;19.70;61.70
37794;DHT22;23632;48.826;15.176;2022-11-09T06:50:21;19.70;61.80
37794;DHT22;23632;48.826;15.176;2022-11-09T06:52:48;19.70;61.80
37794;DHT22;23632;48.826;15.176;2022-11-09T06:55:15;19.70;61.80
37794;DHT22;23632;48.826;15.176;2022-11-09T06:57:42;19.70;61.80
37794;DHT22;23632;48.826;15.176;2022-11-09T07:00:10;19.70;61.80
37794;DHT22;23632;48.826;15.176;2022-11-09T07:02:38;19.70;61.80
37794;DHT22;23632;48.826;15.176;2022-11-09T07:05:06;19.70;61.80
37794;DHT22;23632;48.826;15.176;2022-11-09T07:07:34;19.70;61.80
37794;DHT22;23632;48.826;15.176;2022-11-09T07:10:02;19.70;61.80
37794;DHT22;23632;48.826;15.176;2022-11-09T07:12:30;19.70;61.80
37794;DHT22;23632;48.826;15.176;2022-11-09T07:14:59;19.70;61.80
37794;DHT22;23632;48.826;15.176;2022-11-09T07:17:28;19.70;61.80
37794;DHT22;23632;48.826;15.176;2022-11-09T07:19:58;19.70;61.80
37794;DHT22;23632;48.826;15.176;2022-11-09T07:22:27;19.70;61.80
37794;DHT22;23632;48.826;15.176;2022-11-09T07:24:54;19.70;61.80
37794;DHT22;23632;48.826;15.176;2022-11-09T07:27:22;19.70;61.80
37794;DHT22;23632;48.826;15.176;2022-11-09T07:29:59;19.70;61.80
37794;DHT22;23632;48.826;15.176;2022-11-09T07:32:28;19.70;61.70
37794;DHT22;23632;48.826;15.176;2022-11-09T07:35:23;19.70;61.70
37794;DHT22;23632;48.826;15.176;2022-11-09T07:37:59;19.70;61.80
37794;DHT22;23632;48.826;15.176;2022-11-09T07:40:33;19.70;61.70
37794;DHT22;23632;48.826;15.176;2022-11-09T07:43:05;19.70;61.70
37794;DHT22;23632;48.826;15.176;2022-11-09T07:45:50;19.70;61.80
37794;DHT22;23632;48.826;15.176;2022-11-09T07:48:24;19.70;61.80
37794;DHT22;23632;48.826;15.176;2022-11-09T07:51:03;19.70;61.70
37794;DHT22;23632;48.826;15.176;2022-11-09T07:53:42;19.70;61.80
37794;DHT22;23632;48.826;15.176;2022-11-09T07:56:25;19.70;61.80
37794;DHT22;23632;48.826;15.176;2022-11-09T07:59:14;19.70;61.90
37794;DHT22;23632;48.826;15.176;2022-11-09T08:09:11;19.60;61.70
37794;DHT22;23632;48.826;15.176;2022-11-09T08:11:46;19.60;61.70
37794;DHT22;23632;48.826;15.176;2022-11-09T08:14:23;19.60;61.80
37794;DHT22;23632;48.826;15.176;2022-11-09T08:17:00;19.60;61.80
37794;DHT22;23632;48.826;15.176;2022-11-09T08:19:32;19.60;61.80
37794;DHT22;23632;48.826;15.176;2022-11-09T08:22:14;19.60;61.80
37794;DHT22;23632;48.826;15.176;2022-11-09T08:24:47;19.60;61.80
37794;DHT22;23632;48.826;15.176;2022-11-09T08:27:20;19.60;61.80
37794;DHT22;23632;48.826;15.176;2022-11-09T08:30:02;19.60;61.80
37794;DHT22;23632;48.826;15.176;2022-11-09T08:33:04;19.60;61.90
37794;DHT22;23632;48.826;15.176;2022-11-09T08:35:33;19.60;61.80
37794;DHT22;23632;48.826;15.176;2022-11-09T08:38:02;19.60;61.80
37794;DHT22;23632;48.826;15.176;2022-11-09T08:40:32;19.60;61.80
37794;DHT22;23632;48.826;15.176;2022-11-09T08:43:04;19.60;61.90
37794;DHT22;23632;48.826;15.176;2022-11-09T08:45:34;19.60;61.80
37794;DHT22;23632;48.826;15.176;2022-11-09T08:48:03;19.60;61.80
37794;DHT22;23632;48.826;15.176;2022-11-09T08:50:31;19.60;61.80
37794;DHT22;23632;48.826;15.176;2022-11-09T08:53:03;19.60;61.80
37794;DHT22;23632;48.826;15.176;2022-11-09T08:55:35;19.60;61.80
37794;DHT22;23632;48.826;15.176;2022-11-09T08:58:03;19.60;61.90
37794;DHT22;23632;48.826;15.176;2022-11-09T09:00:32;19.60;61.80
37794;DHT22;23632;48.826;15.176;2022-11-09T09:03:04;19.60;61.80
37794;DHT22;23632;48.826;15.176;2022-11-09T09:05:33;19.60;61.80
37794;DHT22;23632;48.826;15.176;2022-11-09T09:08:05;19.60;61.80
37794;DHT22;23632;48.826;15.176;2022-11-09T09:10:33;19.60;61.80
37794;DHT22;23632;48.826;15.176;2022-11-09T09:13:03;19.60;61.80
37794;DHT22;23632;48.826;15.176;2022-11-09T09:15:30;19.60;61.80
37794;DHT22;23632;48.826;15.176;2022-11-09T09:18:00;19.60;61.80
37794;DHT22;23632;48.826;15.176;2022-11-09T09:20:29;19.60;61.80
37794;DHT22;23632;48.826;15.176;2022-11-09T09:22:58;19.70;61.80
37794;DHT22;23632;48.826;15.176;2022-11-09T09:25:27;19.60;61.80
37794;DHT22;23632;48.826;15.176;2022-11-09T09:27:54;19.60;61.80
37794;DHT22;23632;48.826;15.176;2022-11-09T09:30:27;19.60;61.70
37794;DHT22;23632;48.826;15.176;2022-11-09T09:32:59;19.60;61.70
37794;DHT22;23632;48.826;15.176;2022-11-09T09:35:27;19.60;61.80
37794;DHT22;23632;48.826;15.176;2022-11-09T09:37:55;19.70;61.80
37794;DHT22;23632;48.826;15.176;2022-11-09T09:40:55;19.60;61.70
37794;DHT22;23632;48.826;15.176;2022-11-09T09:43:43;19.60;61.70
37794;DHT22;23632;48.826;15.176;2022-11-09T09:46:48;19.70;61.80
37794;DHT22;23632;48.826;15.176;2022-11-09T09:49:29;19.60;61.70
37794;DHT22;23632;48.826;15.176;2022-11-09T09:55:18;19.60;61.70
37794;DHT22;23632;48.826;15.176;2022-11-09T09:58:28;19.60;61.70
37794;DHT22;23632;48.826;15.176;2022-11-09T10:01:17;19.60;61.70
37794;DHT22;23632;48.826;15.176;2022-11-09T10:03:50;19.60;61.70
37794;DHT22;23632;48.826;15.176;2022-11-09T10:09:22;19.60;61.70
37794;DHT22;23632;48.826;15.176;2022-11-09T10:18:18;19.60;61.80
37794;DHT22;23632;48.826;15.176;2022-11-09T10:21:41;19.60;61.70
37794;DHT22;23632;48.826;15.176;2022-11-09T10:24:38;19.60;61.70
37794;DHT22;23632;48.826;15.176;2022-11-09T10:27:35;19.60;61.70
37794;DHT22;23632;48.826;15.176;2022-11-09T10:30:14;19.60;61.70
37794;DHT22;23632;48.826;15.176;2022-11-09T10:32:47;19.60;61.80
37794;DHT22;23632;48.826;15.176;2022-11-09T10:35:39;19.60;61.80
37794;DHT22;23632;48.826;15.176;2022-11-09T10:38:17;19.60;61.80
37794;DHT22;23632;48.826;15.176;2022-11-09T10:41:19;19.60;61.80
37794;DHT22;23632;48.826;15.176;2022-11-09T10:44:16;19.60;61.70
37794;DHT22;23632;48.826;15.176;2022-11-09T10:47:06;19.60;61.70
37794;DHT22;23632;48.826;15.176;2022-11-09T10:50:29;19.60;61.70
37794;DHT22;23632;48.826;15.176;2022-11-09T10:53:24;19.60;61.80
37794;DHT22;23632;48.826;15.176;2022-11-09T10:56:19;19.60;61.80
37794;DHT22;23632;48.826;15.176;2022-11-09T11:02:39;19.60;61.80
37794;DHT22;23632;48.826;15.176;2022-11-09T11:05:28;19.60;61.70
37794;DHT22;23632;48.826;15.176;2022-11-09T11:08:38;19.60;61.80
37794;DHT22;23632;48.826;15.176;2022-11-09T11:11:28;19.50;61.70
37794;DHT22;23632;48.826;15.176;2022-11-09T11:14:34;19.60;61.80
37794;DHT22;23632;48.826;15.176;2022-11-09T11:17:34;19.50;61.70
37794;DHT22;23632;48.826;15.176;2022-11-09T11:20:34;19.60;61.70
37794;DHT22;23632;48.826;15.176;2022-11-09T11:23:25;19.60;61.80
37794;DHT22;23632;48.826;15.176;2022-11-09T11:29:45;19.60;61.80
37794;DHT22;23632;48.826;15.176;2022-11-09T11:32:35;19.50;61.70
37794;DHT22;23632;48.826;15.176;2022-11-09T11:35:34;19.60;61.90
37794;DHT22;23632;48.826;15.176;2022-11-09T11:38:51;19.50;61.80
37794;DHT22;23632;48.826;15.176;2022-11-09T11:45:09;19.50;61.70
37794;DHT22;23632;48.826;15.176;2022-11-09T11:52:25;19.50;61.80
37794;DHT22;23632;48.826;15.176;2022-11-09T11:55:54;19.60;61.80
37794;DHT22;23632;48.826;15.176;2022-11-09T12:11:43;19.50;61.80
37794;DHT22;23632;48.826;15.176;2022-11-09T12:18:39;19.50;61.80
37794;DHT22;23632;48.826;15.176;2022-11-09T12:21:36;19.50;61.80
37794;DHT22;23632;48.826;15.176;2022-11-09T12:33:53;19.50;61.80
37794;DHT22;23632;48.826;15.176;2022-11-09T12:37:03;19.50;61.80
37794;DHT22;23632;48.826;15.176;2022-11-09T12:39:54;19.50;61.80
37794;DHT22;23632;48.826;15.176;2022-11-09T12:43:01;19.50;61.80
37794;DHT22;23632;48.826;15.176;2022-11-09T12:45:55;19.50;61.80
37794;DHT22;23632;48.826;15.176;2022-11-09T12:48:44;19.50;61.80
37794;DHT22;23632;48.826;15.176;2022-11-09T12:51:32;19.50;61.80
37794;DHT22;23632;48.826;15.176;2022-11-09T12:54:19;19.50;61.80
37794;DHT22;23632;48.826;15.176;2022-11-09T12:57:08;19.50;61.80
37794;DHT22;23632;48.826;15.176;2022-11-09T12:59:59;19.50;61.80
37794;DHT22;23632;48.826;15.176;2022-11-09T13:02:56;19.50;61.80
37794;DHT22;23632;48.826;15.176;2022-11-09T13:05:42;19.50;61.80
37794;DHT22;23632;48.826;15.176;2022-11-09T13:08:31;19.50;61.80
37794;DHT22;23632;48.826;15.176;2022-11-09T13:23:41;19.50;61.70
37794;DHT22;23632;48.826;15.176;2022-11-09T13:32:27;19.50;61.70
37794;DHT22;23632;48.826;15.176;2022-11-09T13:38:28;19.50;61.70
37794;DHT22;23632;48.826;15.176;2022-11-09T13:44:25;19.50;61.70
37794;DHT22;23632;48.826;15.176;2022-11-09T13:47:22;19.50;61.80
37794;DHT22;23632;48.826;15.176;2022-11-09T13:50:20;19.50;61.70
37794;DHT22;23632;48.826;15.176;2022-11-09T13:56:27;19.50;61.70
37794;DHT22;23632;48.826;15.176;2022-11-09T13:59:38;19.50;61.80
37794;DHT22;23632;48.826;15.176;2022-11-09T14:02:28;19.50;61.80
37794;DHT22;23632;48.826;15.176;2022-11-09T14:05:25;19.50;61.70
37794;DHT22;23632;48.826;15.176;2022-11-09T14:08:25;19.50;61.80
37794;DHT22;23632;48.826;15.176;2022-11-09T14:11:38;19.50;61.80
37794;DHT22;23632;48.826;15.176;2022-11-09T14:16:05;19.50;61.80
37794;DHT22;23632;48.826;15.176;2022-11-09T14:19:07;19.50;61.70
37794;DHT22;23632;48.826;15.176;2022-11-09T14:21:59;19.50;61.70
37794;DHT22;23632;48.826;15.176;2022-11-09T14:24:45;19.50;61.70
37794;DHT22;23632;48.826;15.176;2022-11-09T14:27:31;19.50;61.80
37794;DHT22;23632;48.826;15.176;2022-11-09T14:30:21;19.50;61.80
37794;DHT22;23632;48.826;15.176;2022-11-09T14:33:26;19.40;61.70
37794;DHT22;23632;48.826;15.176;2022-11-09T14:36:20;19.40;61.70
37794;DHT22;23632;48.826;15.176;2022-11-09T14:39:26;19.50;61.80
37794;DHT22;23632;48.826;15.176;2022-11-09T14:42:19;19.40;61.70
37794;DHT22;23632;48.826;15.176;2022-11-09T14:45:13;19.40;61.80
37794;DHT22;23632;48.826;15.176;2022-11-09T14:48:00;19.40;61.80
37794;DHT22;23632;48.826;15.176;2022-11-09T14:50:46;19.40;61.70
37794;DHT22;23632;48.826;15.176;2022-11-09T14:53:36;19.50;61.80
37794;DHT22;23632;48.826;15.176;2022-11-09T14:56:23;19.50;61.80
37794;DHT22;23632;48.826;15.176;2022-11-09T14:59:19;19.40;61.70
37794;DHT22;23632;48.826;15.176;2022-11-09T15:02:14;19.40;61.80
37794;DHT22;23632;48.826;15.176;2022-11-09T15:05:04;19.40;61.80
37794;DHT22;23632;48.826;15.176;2022-11-09T15:07:52;19.40;61.70
37794;DHT22;23632;48.826;15.176;2022-11-09T15:10:37;19.40;61.80
37794;DHT22;23632;48.826;15.176;2022-11-09T15:13:35;19.40;61.70
37794;DHT22;23632;48.826;15.176;2022-11-09T15:16:27;19.40;61.70
37794;DHT22;23632;48.826;15.176;2022-11-09T15:19:28;19.40;61.70
37794;DHT22;23632;48.826;15.176;2022-11-09T15:22:41;19.40;61.80
37794;DHT22;23632;48.826;15.176;2022-11-09T15:25:33;19.40;61.70
37794;DHT22;23632;48.826;15.176;2022-11-09T15:28:23;19.40;61.70
37794;DHT22;23632;48.826;15.176;2022-11-09T15:31:14;19.40;61.70
37794;DHT22;23632;48.826;15.176;2022-11-09T15:34:01;19.40;61.70
37794;DHT22;23632;48.826;15.176;2022-11-09T15:36:53;19.40;61.70
37794;DHT22;23632;48.826;15.176;2022-11-09T15:39:39;19.40;61.80
37794;DHT22;23632;48.826;15.176;2022-11-09T15:42:26;19.40;61.70
37794;DHT22;23632;48.826;15.176;2022-11-09T15:45:14;19.40;61.80
37794;DHT22;23632;48.826;15.176;2022-11-09T15:48:04;19.40;61.80
37794;DHT22;23632;48.826;15.176;2022-11-09T15:50:53;19.40;61.70
37794;DHT22;23632;48.826;15.176;2022-11-09T15:53:39;19.40;61.70
37794;DHT22;23632;48.826;15.176;2022-11-09T15:56:25;19.40;61.80
37794;DHT22;23632;48.826;15.176;2022-11-09T15:59:21;19.40;61.80
37794;DHT22;23632;48.826;15.176;2022-11-09T16:02:09;19.40;61.80
37794;DHT22;23632;48.826;15.176;2022-11-09T16:04:57;19.40;61.80
37794;DHT22;23632;48.826;15.176;2022-11-09T16:07:50;19.40;61.80
37794;DHT22;23632;48.826;15.176;2022-11-09T16:10:38;19.40;61.80
37794;DHT22;23632;48.826;15.176;2022-11-09T16:13:25;19.40;61.80
37794;DHT22;23632;48.826;15.176;2022-11-09T16:16:13;19.40;61.80
37794;DHT22;23632;48.826;15.176;2022-11-09T16:19:00;19.40;62.70
37794;DHT22;23632;48.826;15.176;2022-11-09T16:21:51;19.40;61.80
37794;DHT22;23632;48.826;15.176;2022-11-09T16:24:37;19.40;61.80
37794;DHT22;23632;48.826;15.176;2022-11-09T16:27:24;19.40;61.80
37794;DHT22;23632;48.826;15.176;2022-11-09T16:30:30;19.40;61.80
37794;DHT22;23632;48.826;15.176;2022-11-09T16:33:17;19.30;61.70
37794;DHT22;23632;48.826;15.176;2022-11-09T16:36:07;19.30;61.80
37794;DHT22;23632;48.826;15.176;2022-11-09T16:38:55;19.40;61.80
37794;DHT22;23632;48.826;15.176;2022-11-09T16:41:42;19.30;61.70
37794;DHT22;23632;48.826;15.176;2022-11-09T16:44:32;19.30;61.70
37794;DHT22;23632;48.826;15.176;2022-11-09T16:47:19;19.30;61.70
37794;DHT22;23632;48.826;15.176;2022-11-09T16:50:06;19.30;61.80
37794;DHT22;23632;48.826;15.176;2022-11-09T16:52:52;19.30;61.70
37794;DHT22;23632;48.826;15.176;2022-11-09T16:55:38;19.30;61.80
37794;DHT22;23632;48.826;15.176;2022-11-09T16:58:23;19.30;61.80
37794;DHT22;23632;48.826;15.176;2022-11-09T17:01:10;19.30;61.80
37794;DHT22;23632;48.826;15.176;2022-11-09T17:03:59;19.30;61.80
37794;DHT22;23632;48.826;15.176;2022-11-09T17:06:44;19.30;61.80
37794;DHT22;23632;48.826;15.176;2022-11-09T17:09:34;19.30;61.80
37794;DHT22;23632;48.826;15.176;2022-11-09T17:12:20;19.30;61.80
37794;DHT22;23632;48.826;15.176;2022-11-09T17:15:06;19.30;61.80
37794;DHT22;23632;48.826;15.176;2022-11-09T17:17:52;19.30;61.80
37794;DHT22;23632;48.826;15.176;2022-11-09T17:20:46;19.30;61.80
37794;DHT22;23632;48.826;15.176;2022-11-09T17:23:33;19.30;61.80
37794;DHT22;23632;48.826;15.176;2022-11-09T17:26:20;19.30;61.80
37794;DHT22;23632;48.826;15.176;2022-11-09T17:29:07;19.30;61.80
37794;DHT22;23632;48.826;15.176;2022-11-09T17:31:53;19.30;61.90
37794;DHT22;23632;48.826;15.176;2022-11-09T17:34:39;19.30;61.80
37794;DHT22;23632;48.826;15.176;2022-11-09T17:37:25;19.30;61.80
37794;DHT22;23632;48.826;15.176;2022-11-09T17:40:11;19.30;61.80
37794;DHT22;23632;48.826;15.176;2022-11-09T17:42:57;19.30;61.80
37794;DHT22;23632;48.826;15.176;2022-11-09T17:45:44;19.30;61.80
37794;DHT22;23632;48.826;15.176;2022-11-09T17:48:30;19.30;61.80
37794;DHT22;23632;48.826;15.176;2022-11-09T17:51:17;19.30;61.80
37794;DHT22;23632;48.826;15.176;2022-11-09T17:54:04;19.30;61.80
37794;DHT22;23632;48.826;15.176;2022-11-09T17:56:50;19.30;61.80
37794;DHT22;23632;48.826;15.176;2022-11-09T17:59:36;19.30;61.80